createdAt,value
2022-08-18T00:01:17.014Z,5.05
2022-08-18T00:06:24.026Z,6.20
2022-08-18T00:11:40.425Z,6.10
2022-08-18T00:16:47.438Z,5.95
2022-08-18T00:21:52.313Z,4.80
2022-08-18T00:26:55.717Z,5.78
2022-08-18T00:31:59.788Z,6.15
2022-08-18T00:37:04.406Z,4.50
2022-08-18T00:42:27.664Z,4.43
2022-08-18T00:47:52.832Z,7.72
2022-08-18T00:53:02.313Z,7.20
2022-08-18T00:58:10.494Z,7.63
2022-08-18T01:03:24.542Z,7.00
2022-08-18T01:08:30.426Z,5.88
2022-08-18T01:13:34.933Z,5.63
2022-08-18T01:18:55.821Z,6.30
2022-08-18T01:24:03.333Z,7.18
2022-08-18T01:29:11.947Z,5.80
2022-08-18T01:34:24.916Z,4.90
2022-08-18T01:40:59.618Z,5.30
2022-08-18T01:44:53.142Z,5.05
2022-08-18T01:49:57.164Z,5.18
2022-08-18T01:55:01.853Z,5.60
2022-08-18T02:00:06.291Z,4.93
2022-08-18T02:05:18.490Z,5.13
2022-08-18T02:10:23.719Z,7.43
2022-08-18T02:15:28.280Z,5.35
2022-08-18T02:20:32.011Z,8.15
2022-08-18T02:25:36.770Z,6.95
2022-08-18T02:30:40.601Z,5.35
2022-08-18T02:35:44.121Z,5.70
2022-08-18T02:40:48.811Z,9.57
2022-08-18T02:45:52.098Z,6.45
2022-08-18T02:51:01.919Z,9.13
2022-08-18T02:56:33.733Z,5.35
2022-08-18T03:01:51.067Z,8.98
2022-08-18T03:06:55.414Z,6.70
2022-08-18T03:12:00.273Z,6.25
2022-08-18T03:17:05.588Z,7.07
2022-08-18T03:22:27.297Z,5.05
2022-08-18T03:27:33.241Z,6.57
2022-08-18T03:32:36.520Z,9.77
2022-08-18T03:37:40.287Z,5.40
2022-08-18T03:42:44.962Z,6.55
2022-08-18T03:47:50.187Z,8.10
2022-08-18T03:52:53.695Z,6.82
2022-08-18T03:58:03.629Z,5.32
2022-08-18T04:03:07.281Z,6.72
2022-08-18T04:08:10.536Z,8.77
2022-08-18T04:13:15.301Z,5.93
2022-08-18T04:18:23.004Z,7.40
2022-08-18T04:23:26.503Z,6.72
2022-08-18T04:28:32.822Z,8.82
2022-08-18T04:33:36.081Z,8.35
2022-08-18T04:38:42.017Z,7.10
2022-08-18T04:43:49.907Z,7.35
2022-08-18T04:48:58.681Z,6.38
2022-08-18T04:54:02.063Z,6.93
2022-08-18T04:59:08.862Z,6.20
2022-08-18T05:04:13.849Z,7.47
2022-08-18T05:09:22.738Z,7.25
2022-08-18T05:14:27.649Z,5.45
2022-08-18T05:19:31.864Z,5.78
2022-08-18T05:24:36.843Z,6.97
2022-08-18T05:29:45.755Z,7.10
2022-08-18T05:34:50.107Z,5.85
2022-08-18T05:39:59.382Z,8.52
2022-08-18T05:45:08.182Z,4.82
2022-08-18T05:50:16.485Z,5.63
2022-08-18T05:55:47.250Z,5.25
2022-08-18T06:00:59.680Z,5.05
2022-08-18T06:06:09.139Z,5.95
2022-08-18T06:11:22.684Z,5.45
2022-08-18T06:16:39.973Z,6.25
2022-08-18T06:21:51.993Z,6.88
2022-08-18T06:27:02.323Z,4.45
2022-08-18T06:32:15.721Z,4.95
2022-08-18T06:37:25.072Z,6.70
2022-08-18T06:42:31.022Z,6.25
2022-08-18T06:47:42.101Z,6.78
2022-08-18T06:52:54.232Z,4.90
2022-08-18T06:58:01.543Z,3.83
2022-08-18T07:03:12.531Z,6.38
2022-08-18T07:08:18.882Z,4.70
2022-08-18T07:13:26.743Z,8.32
2022-08-18T07:18:31.308Z,4.78
2022-08-18T07:23:38.424Z,7.70
2022-08-18T07:28:44.527Z,6.25
2022-08-18T07:33:56.705Z,5.10
2022-08-18T07:39:05.543Z,10.90
2022-08-18T07:44:20.891Z,6.32
2022-08-18T07:49:29.830Z,7.82
2022-08-18T07:54:50.176Z,5.60
2022-08-18T08:00:01.846Z,8.18
2022-08-18T08:05:15.159Z,5.88
2022-08-18T08:10:32.162Z,5.72
2022-08-18T08:15:44.490Z,8.23
2022-08-18T08:20:52.818Z,6.57
2022-08-18T08:26:19.967Z,7.10
2022-08-18T08:31:37.972Z,4.93
2022-08-18T08:36:45.583Z,4.57
2022-08-18T08:41:53.069Z,8.85
2022-08-18T08:47:06.068Z,11.27
2022-08-18T08:52:18.949Z,5.50
2022-08-18T08:57:28.555Z,8.02
2022-08-18T09:02:58.515Z,5.63
2022-08-18T09:08:35.824Z,7.03
2022-08-18T09:14:14.324Z,4.47
2022-08-18T09:19:35.964Z,8.05
2022-08-18T09:24:46.992Z,6.22
2022-08-18T09:29:54.011Z,7.13
2022-08-18T09:35:12.368Z,6.45
2022-08-18T09:46:04.516Z,5.22
2022-08-18T09:51:39.976Z,6.85
2022-08-18T09:57:24.452Z,8.55
2022-08-18T10:03:11.251Z,7.78
2022-08-18T10:08:37.482Z,7.97
2022-08-18T10:13:53.622Z,6.28
2022-08-18T10:19:09.304Z,5.95
2022-08-18T10:24:36.786Z,6.72
2022-08-18T10:29:56.560Z,9.65
2022-08-18T10:35:00.450Z,7.13
2022-08-18T10:40:06.916Z,7.18
2022-08-18T10:45:24.888Z,7.82
2022-08-18T10:50:31.590Z,6.65
2022-08-18T10:55:50.320Z,6.38
2022-08-18T11:01:10.784Z,6.32
2022-08-18T11:06:21.886Z,9.32
2022-08-18T11:11:39.890Z,8.15
2022-08-18T11:16:56.228Z,5.75
2022-08-18T11:22:01.695Z,8.98
2022-08-18T11:27:15.221Z,8.85
2022-08-18T11:32:25.304Z,6.72
2022-08-18T11:37:49.816Z,6.22
2022-08-18T11:43:01.662Z,7.32
2022-08-18T11:48:22.020Z,9.48
2022-08-18T11:53:44.104Z,8.23
2022-08-18T11:58:53.979Z,8.80
2022-08-18T12:03:59.718Z,11.30
2022-08-18T12:09:07.147Z,10.55
2022-08-18T12:19:43.922Z,9.73
2022-08-18T12:24:51.012Z,11.73
2022-08-18T12:29:57.500Z,7.57
2022-08-18T12:35:07.855Z,8.10
2022-08-18T12:40:13.775Z,6.43
2022-08-18T12:45:20.193Z,10.68
2022-08-18T12:50:30.852Z,9.15
2022-08-18T12:55:44.045Z,9.75
2022-08-18T13:00:49.190Z,8.05
2022-08-18T13:05:56.104Z,9.23
2022-08-18T13:11:14.783Z,10.00
2022-08-18T13:16:38.674Z,7.95
2022-08-18T13:21:52.404Z,7.45
2022-08-18T13:26:56.239Z,9.18
2022-08-18T13:31:59.765Z,10.50
2022-08-18T13:37:05.897Z,7.45
2022-08-18T13:42:26.634Z,8.35
2022-08-18T13:47:38.257Z,6.78
2022-08-18T13:52:44.787Z,8.88
2022-08-18T13:57:49.853Z,11.02
2022-08-18T14:02:53.808Z,7.88
2022-08-18T14:07:58.454Z,6.15
2022-08-18T14:13:09.403Z,8.68
2022-08-18T14:18:28.640Z,8.27
2022-08-18T14:24:02.831Z,7.28
2022-08-18T14:29:06.104Z,6.70
2022-08-18T14:34:14.494Z,7.32
2022-08-18T14:39:27.636Z,8.50
2022-08-18T14:44:32.749Z,7.13
2022-08-18T14:49:36.312Z,9.13
2022-08-18T14:54:52.904Z,7.10
2022-08-18T14:59:58.175Z,21.17
2022-08-18T15:05:01.428Z,11.80
2022-08-18T15:10:14.952Z,6.57
2022-08-18T15:15:22.598Z,9.68
2022-08-18T15:20:29.776Z,13.07
2022-08-18T15:25:45.685Z,9.05
2022-08-18T15:36:29.149Z,6.85
2022-08-18T15:41:44.706Z,7.13
2022-08-18T15:46:53.223Z,11.38
2022-08-18T15:51:56.729Z,6.75
2022-08-18T15:57:01.536Z,7.53
2022-08-18T16:02:11.424Z,8.52
2022-08-18T16:07:17.875Z,6.22
2022-08-18T16:12:31.513Z,8.77
2022-08-18T16:17:37.215Z,6.32
2022-08-18T16:22:42.635Z,11.20
2022-08-18T16:27:48.055Z,6.88
2022-08-18T16:32:52.529Z,9.18
2022-08-18T16:37:56.344Z,7.70
2022-08-18T16:43:01.535Z,8.38
2022-08-18T16:48:10.745Z,6.50
2022-08-18T16:53:15.184Z,6.25
2022-08-18T16:58:51.671Z,6.35
2022-08-18T17:04:13.555Z,6.97
2022-08-18T17:09:24.291Z,6.65
2022-08-18T17:14:32.123Z,8.10
2022-08-18T17:19:40.449Z,6.32
2022-08-18T17:24:49.825Z,7.20
2022-08-18T17:30:05.623Z,9.25
2022-08-18T17:35:14.189Z,5.40
2022-08-18T17:40:21.327Z,5.28
2022-08-18T17:45:26.106Z,7.45
2022-08-18T17:50:56.816Z,7.85
2022-08-18T17:56:03.256Z,6.13
2022-08-18T18:01:08.818Z,9.02
2022-08-18T18:06:19.658Z,6.03
2022-08-18T18:11:31.140Z,7.82
2022-08-18T18:16:40.191Z,8.25
2022-08-18T18:21:57.570Z,10.27
2022-08-18T18:27:25.709Z,14.05
2022-08-18T18:32:32.486Z,12.85
2022-08-18T18:37:47.120Z,12.13
2022-08-18T18:42:51.411Z,13.73
2022-08-18T18:48:45.243Z,9.63
2022-08-18T18:53:52.657Z,7.20
2022-08-18T18:59:17.812Z,11.55
2022-08-18T19:04:34.569Z,11.10
2022-08-18T19:09:47.327Z,11.63
2022-08-18T19:15:00.092Z,12.77
2022-08-18T19:20:09.478Z,13.00
2022-08-18T19:25:17.703Z,12.55
2022-08-18T19:30:22.625Z,18.52
2022-08-18T19:35:38.008Z,14.18
2022-08-18T19:40:48.060Z,20.90
2022-08-18T19:45:57.921Z,15.75
2022-08-18T19:51:12.424Z,16.67
2022-08-18T19:56:32.610Z,17.67
2022-08-18T20:01:56.716Z,13.43
2022-08-18T20:07:37.966Z,18.33
2022-08-18T20:13:03.238Z,18.92
2022-08-18T20:18:20.738Z,17.90
2022-08-18T20:23:37.687Z,19.20
2022-08-18T20:28:42.430Z,19.00
2022-08-18T20:33:54.311Z,19.55
2022-08-18T20:39:00.823Z,23.58
2022-08-18T20:44:38.037Z,24.38
2022-08-18T20:49:53.951Z,22.65
2022-08-18T20:55:11.671Z,24.27
2022-08-18T21:00:22.594Z,28.27
2022-08-18T21:05:35.673Z,25.95
2022-08-18T21:10:39.009Z,25.77
2022-08-18T21:15:44.307Z,21.25
2022-08-18T21:20:48.461Z,21.58
2022-08-18T21:25:54.535Z,23.30
2022-08-18T21:31:42.346Z,21.60
2022-08-18T21:36:31.743Z,23.30
2022-08-18T21:41:40.682Z,22.95
2022-08-18T21:46:46.924Z,19.63
2022-08-18T21:51:51.841Z,19.08
2022-08-18T21:57:23.167Z,21.00
2022-08-18T22:02:27.862Z,21.55
2022-08-18T22:07:35.568Z,22.08
2022-08-18T22:12:57.114Z,22.63
2022-08-18T22:18:05.399Z,20.08
2022-08-18T22:23:41.643Z,23.73
2022-08-18T22:28:52.633Z,19.65
2022-08-18T22:33:57.761Z,18.27
2022-08-18T22:39:01.809Z,21.45
2022-08-18T22:44:07.462Z,24.20
2022-08-18T22:49:12.137Z,24.98
2022-08-18T22:54:15.951Z,25.65
2022-08-18T22:59:21.614Z,25.23
2022-08-18T23:04:27.086Z,29.60
2022-08-18T23:09:32.543Z,25.52
2022-08-18T23:14:36.471Z,27.38
2022-08-18T23:19:41.655Z,25.35
2022-08-18T23:24:45.501Z,34.92
2022-08-18T23:29:48.861Z,29.35
2022-08-18T23:34:53.546Z,22.10
2022-08-18T23:39:56.813Z,25.88
2022-08-18T23:45:03.219Z,23.55
2022-08-18T23:50:08.919Z,26.20
2022-08-18T23:55:14.463Z,25.17
